sensor_id;sensor_type;location;lat;lon;timestamp;P1;durP1;ratioP1;P2;durP2;ratioP2
67344;SDS011;54230;52.402;6.276;2023-01-29T00:00:00;23.5;;;11.3;;
67344;SDS011;54230;52.402;6.276;2023-01-29T00:05:00;23.1;;;11.3;;
67344;SDS011;54230;52.402;6.276;2023-01-29T00:10:00;24.9;;;11.4;;
67344;SDS011;54230;52.402;6.276;2023-01-29T00:15:00;22.5;;;11.5;;
67344;SDS011;54230;52.402;6.276;2023-01-29T00:20:00;23.8;;;11.7;;
67344;SDS011;54230;52.402;6.276;2023-01-29T00:25:00;23.2;;;11.7;;
67344;SDS011;54230;52.402;6.276;2023-01-29T00:30:00;24.3;;;12.1;;
67344;SDS011;54230;52.402;6.276;2023-01-29T00:35:00;26.1;;;11.4;;
67344;SDS011;54230;52.402;6.276;2023-01-29T00:40:00;23.8;;;11.7;;
67344;SDS011;54230;52.402;6.276;2023-01-29T00:45:00;23.6;;;12.3;;
67344;SDS011;54230;52.402;6.276;2023-01-29T00:50:00;27.4;;;12.6;;
67344;SDS011;54230;52.402;6.276;2023-01-29T00:55:00;24.6;;;12.3;;
67344;SDS011;54230;52.402;6.276;2023-01-29T01:00:00;23.8;;;11.6;;
67344;SDS011;54230;52.402;6.276;2023-01-29T01:05:00;23.6;;;12.0;;
67344;SDS011;54230;52.402;6.276;2023-01-29T01:10:00;25.5;;;12.4;;
67344;SDS011;54230;52.402;6.276;2023-01-29T01:15:00;24.9;;;11.9;;
67344;SDS011;54230;52.402;6.276;2023-01-29T01:20:00;24.5;;;12.1;;
67344;SDS011;54230;52.402;6.276;2023-01-29T01:25:00;24.5;;;12.2;;
67344;SDS011;54230;52.402;6.276;2023-01-29T01:30:00;25.7;;;12.4;;
67344;SDS011;54230;52.402;6.276;2023-01-29T01:35:00;24.9;;;12.5;;
67344;SDS011;54230;52.402;6.276;2023-01-29T01:40:00;25.3;;;12.6;;
67344;SDS011;54230;52.402;6.276;2023-01-29T01:45:01;24.7;;;12.6;;
67344;SDS011;54230;52.402;6.276;2023-01-29T01:50:01;25.8;;;12.7;;
67344;SDS011;54230;52.402;6.276;2023-01-29T01:55:00;27.0;;;13.5;;
67344;SDS011;54230;52.402;6.276;2023-01-29T02:00:02;27.0;;;13.4;;
67344;SDS011;54230;52.402;6.276;2023-01-29T02:05:00;25.6;;;12.3;;
67344;SDS011;54230;52.402;6.276;2023-01-29T02:10:00;26.0;;;12.8;;
67344;SDS011;54230;52.402;6.276;2023-01-29T02:15:00;25.1;;;13.0;;
67344;SDS011;54230;52.402;6.276;2023-01-29T02:20:02;27.6;;;13.8;;
67344;SDS011;54230;52.402;6.276;2023-01-29T02:25:02;26.3;;;13.3;;
67344;SDS011;54230;52.402;6.276;2023-01-29T02:30:02;26.4;;;13.1;;
67344;SDS011;54230;52.402;6.276;2023-01-29T02:35:05;27.1;;;13.2;;
67344;SDS011;54230;52.402;6.276;2023-01-29T02:40:03;28.5;;;13.5;;
67344;SDS011;54230;52.402;6.276;2023-01-29T02:45:03;26.1;;;13.4;;
67344;SDS011;54230;52.402;6.276;2023-01-29T02:50:02;28.2;;;14.1;;
67344;SDS011;54230;52.402;6.276;2023-01-29T02:55:01;28.7;;;13.8;;
67344;SDS011;54230;52.402;6.276;2023-01-29T03:00:02;28.4;;;13.9;;
67344;SDS011;54230;52.402;6.276;2023-01-29T03:05:02;28.6;;;14.5;;
67344;SDS011;54230;52.402;6.276;2023-01-29T03:10:00;29.5;;;14.2;;
67344;SDS011;54230;52.402;6.276;2023-01-29T03:15:00;28.0;;;14.5;;
67344;SDS011;54230;52.402;6.276;2023-01-29T03:20:00;29.6;;;15.0;;
67344;SDS011;54230;52.402;6.276;2023-01-29T03:25:00;29.4;;;14.7;;
67344;SDS011;54230;52.402;6.276;2023-01-29T03:30:00;29.9;;;14.7;;
67344;SDS011;54230;52.402;6.276;2023-01-29T03:35:01;29.2;;;15.2;;
67344;SDS011;54230;52.402;6.276;2023-01-29T03:40:00;28.5;;;14.8;;
67344;SDS011;54230;52.402;6.276;2023-01-29T03:45:03;28.5;;;15.0;;
67344;SDS011;54230;52.402;6.276;2023-01-29T03:50:01;30.1;;;15.7;;
67344;SDS011;54230;52.402;6.276;2023-01-29T03:55:02;29.2;;;15.4;;
67344;SDS011;54230;52.402;6.276;2023-01-29T04:00:03;29.1;;;15.0;;
67344;SDS011;54230;52.402;6.276;2023-01-29T04:05:01;29.4;;;15.3;;
67344;SDS011;54230;52.402;6.276;2023-01-29T04:10:01;28.6;;;14.4;;
67344;SDS011;54230;52.402;6.276;2023-01-29T04:15:00;28.8;;;15.2;;
67344;SDS011;54230;52.402;6.276;2023-01-29T04:20:00;28.8;;;14.9;;
67344;SDS011;54230;52.402;6.276;2023-01-29T04:25:01;27.2;;;15.0;;
67344;SDS011;54230;52.402;6.276;2023-01-29T04:30:03;29.1;;;15.7;;
67344;SDS011;54230;52.402;6.276;2023-01-29T04:35:02;27.9;;;15.1;;
67344;SDS011;54230;52.402;6.276;2023-01-29T04:40:02;29.1;;;15.3;;
67344;SDS011;54230;52.402;6.276;2023-01-29T04:45:02;27.5;;;14.6;;
67344;SDS011;54230;52.402;6.276;2023-01-29T04:50:02;28.1;;;15.1;;
67344;SDS011;54230;52.402;6.276;2023-01-29T04:55:02;29.0;;;15.2;;
67344;SDS011;54230;52.402;6.276;2023-01-29T05:00:02;28.2;;;14.8;;
67344;SDS011;54230;52.402;6.276;2023-01-29T05:05:00;29.4;;;14.6;;
67344;SDS011;54230;52.402;6.276;2023-01-29T05:10:00;28.3;;;14.6;;
67344;SDS011;54230;52.402;6.276;2023-01-29T05:15:01;27.5;;;14.4;;
67344;SDS011;54230;52.402;6.276;2023-01-29T05:20:00;27.9;;;14.6;;
67344;SDS011;54230;52.402;6.276;2023-01-29T05:25:00;26.7;;;14.5;;
67344;SDS011;54230;52.402;6.276;2023-01-29T05:30:00;35.1;;;15.4;;
67344;SDS011;54230;52.402;6.276;2023-01-29T05:35:00;26.3;;;14.2;;
67344;SDS011;54230;52.402;6.276;2023-01-29T05:40:00;30.0;;;14.9;;
67344;SDS011;54230;52.402;6.276;2023-01-29T05:45:00;29.0;;;15.0;;
67344;SDS011;54230;52.402;6.276;2023-01-29T05:50:00;28.0;;;14.5;;
67344;SDS011;54230;52.402;6.276;2023-01-29T05:55:00;27.0;;;14.3;;
67344;SDS011;54230;52.402;6.276;2023-01-29T06:00:00;29.3;;;14.8;;
67344;SDS011;54230;52.402;6.276;2023-01-29T06:05:00;27.1;;;13.5;;
67344;SDS011;54230;52.402;6.276;2023-01-29T06:10:00;26.8;;;13.5;;
67344;SDS011;54230;52.402;6.276;2023-01-29T06:15:00;28.3;;;14.4;;
67344;SDS011;54230;52.402;6.276;2023-01-29T06:20:00;24.6;;;13.2;;
67344;SDS011;54230;52.402;6.276;2023-01-29T06:25:00;26.1;;;13.6;;
67344;SDS011;54230;52.402;6.276;2023-01-29T06:30:00;27.3;;;14.9;;
67344;SDS011;54230;52.402;6.276;2023-01-29T06:35:00;27.5;;;13.3;;
67344;SDS011;54230;52.402;6.276;2023-01-29T06:40:00;27.2;;;13.8;;
67344;SDS011;54230;52.402;6.276;2023-01-29T06:45:00;30.6;;;15.5;;
67344;SDS011;54230;52.402;6.276;2023-01-29T06:50:00;31.1;;;14.9;;
67344;SDS011;54230;52.402;6.276;2023-01-29T06:55:00;29.3;;;15.0;;
67344;SDS011;54230;52.402;6.276;2023-01-29T07:00:00;30.5;;;15.9;;
67344;SDS011;54230;52.402;6.276;2023-01-29T07:05:00;29.8;;;15.2;;
67344;SDS011;54230;52.402;6.276;2023-01-29T07:10:00;31.7;;;16.0;;
67344;SDS011;54230;52.402;6.276;2023-01-29T07:15:00;30.4;;;16.4;;
67344;SDS011;54230;52.402;6.276;2023-01-29T07:20:00;29.5;;;15.6;;
67344;SDS011;54230;52.402;6.276;2023-01-29T07:25:00;29.3;;;15.3;;
67344;SDS011;54230;52.402;6.276;2023-01-29T07:30:00;32.5;;;15.7;;
67344;SDS011;54230;52.402;6.276;2023-01-29T07:35:00;30.5;;;16.5;;
67344;SDS011;54230;52.402;6.276;2023-01-29T07:40:00;30.0;;;15.3;;
67344;SDS011;54230;52.402;6.276;2023-01-29T07:45:00;29.8;;;15.5;;
67344;SDS011;54230;52.402;6.276;2023-01-29T07:50:00;27.9;;;14.3;;
67344;SDS011;54230;52.402;6.276;2023-01-29T07:55:00;29.0;;;16.3;;
67344;SDS011;54230;52.402;6.276;2023-01-29T08:00:00;29.5;;;15.5;;
67344;SDS011;54230;52.402;6.276;2023-01-29T08:05:00;29.2;;;15.6;;
67344;SDS011;54230;52.402;6.276;2023-01-29T08:10:00;28.2;;;15.2;;
67344;SDS011;54230;52.402;6.276;2023-01-29T08:15:00;27.8;;;14.5;;
67344;SDS011;54230;52.402;6.276;2023-01-29T08:20:00;31.1;;;15.8;;
67344;SDS011;54230;52.402;6.276;2023-01-29T08:25:00;28.8;;;15.3;;
67344;SDS011;54230;52.402;6.276;2023-01-29T08:30:00;31.8;;;17.8;;
67344;SDS011;54230;52.402;6.276;2023-01-29T08:35:00;29.7;;;16.7;;
67344;SDS011;54230;52.402;6.276;2023-01-29T08:40:00;33.6;;;17.3;;
67344;SDS011;54230;52.402;6.276;2023-01-29T08:45:00;32.2;;;17.5;;
67344;SDS011;54230;52.402;6.276;2023-01-29T08:50:00;30.2;;;16.8;;
67344;SDS011;54230;52.402;6.276;2023-01-29T08:55:00;31.3;;;15.9;;
67344;SDS011;54230;52.402;6.276;2023-01-29T09:00:00;32.3;;;17.1;;
67344;SDS011;54230;52.402;6.276;2023-01-29T09:05:00;31.7;;;17.7;;
67344;SDS011;54230;52.402;6.276;2023-01-29T09:10:00;32.0;;;16.4;;
67344;SDS011;54230;52.402;6.276;2023-01-29T09:15:00;27.7;;;15.0;;
67344;SDS011;54230;52.402;6.276;2023-01-29T09:20:00;30.6;;;16.0;;
67344;SDS011;54230;52.402;6.276;2023-01-29T09:25:00;29.8;;;16.1;;
67344;SDS011;54230;52.402;6.276;2023-01-29T09:30:00;24.3;;;12.6;;
67344;SDS011;54230;52.402;6.276;2023-01-29T09:35:00;26.4;;;13.7;;
67344;SDS011;54230;52.402;6.276;2023-01-29T09:40:00;30.6;;;15.8;;
67344;SDS011;54230;52.402;6.276;2023-01-29T09:45:02;30.7;;;14.9;;
67344;SDS011;54230;52.402;6.276;2023-01-29T09:50:01;32.0;;;15.3;;
67344;SDS011;54230;52.402;6.276;2023-01-29T09:55:01;27.6;;;14.4;;
67344;SDS011;54230;52.402;6.276;2023-01-29T10:00:00;28.1;;;14.7;;
67344;SDS011;54230;52.402;6.276;2023-01-29T10:05:04;27.5;;;14.3;;
67344;SDS011;54230;52.402;6.276;2023-01-29T10:10:06;25.8;;;13.0;;
67344;SDS011;54230;52.402;6.276;2023-01-29T10:15:02;30.0;;;16.8;;
67344;SDS011;54230;52.402;6.276;2023-01-29T10:20:02;29.5;;;16.0;;
67344;SDS011;54230;52.402;6.276;2023-01-29T10:25:01;30.6;;;16.1;;
67344;SDS011;54230;52.402;6.276;2023-01-29T10:30:01;29.3;;;15.1;;
67344;SDS011;54230;52.402;6.276;2023-01-29T10:35:02;31.6;;;16.8;;
67344;SDS011;54230;52.402;6.276;2023-01-29T10:40:00;31.2;;;15.6;;
67344;SDS011;54230;52.402;6.276;2023-01-29T10:45:04;29.2;;;16.5;;
67344;SDS011;54230;52.402;6.276;2023-01-29T10:50:04;27.4;;;15.1;;
67344;SDS011;54230;52.402;6.276;2023-01-29T10:55:03;27.7;;;13.7;;
67344;SDS011;54230;52.402;6.276;2023-01-29T11:00:03;26.9;;;14.8;;
67344;SDS011;54230;52.402;6.276;2023-01-29T11:05:00;27.6;;;13.8;;
67344;SDS011;54230;52.402;6.276;2023-01-29T11:10:02;29.9;;;15.7;;
67344;SDS011;54230;52.402;6.276;2023-01-29T11:15:01;26.8;;;15.3;;
67344;SDS011;54230;52.402;6.276;2023-01-29T11:20:00;27.7;;;13.8;;
67344;SDS011;54230;52.402;6.276;2023-01-29T11:25:09;20.2;;;11.9;;
67344;SDS011;54230;52.402;6.276;2023-01-29T11:30:00;27.3;;;13.7;;
67344;SDS011;54230;52.402;6.276;2023-01-29T11:35:02;24.7;;;13.6;;
67344;SDS011;54230;52.402;6.276;2023-01-29T11:40:00;27.9;;;14.6;;
67344;SDS011;54230;52.402;6.276;2023-01-29T11:45:00;29.1;;;15.6;;
67344;SDS011;54230;52.402;6.276;2023-01-29T11:50:00;28.4;;;14.6;;
67344;SDS011;54230;52.402;6.276;2023-01-29T11:55:01;30.7;;;17.3;;
67344;SDS011;54230;52.402;6.276;2023-01-29T12:00:00;27.8;;;15.4;;
67344;SDS011;54230;52.402;6.276;2023-01-29T12:05:02;29.8;;;14.5;;
67344;SDS011;54230;52.402;6.276;2023-01-29T12:10:00;28.8;;;16.6;;
67344;SDS011;54230;52.402;6.276;2023-01-29T12:15:03;31.3;;;16.9;;
67344;SDS011;54230;52.402;6.276;2023-01-29T12:20:01;31.1;;;16.8;;
67344;SDS011;54230;52.402;6.276;2023-01-29T12:25:00;30.6;;;16.8;;
67344;SDS011;54230;52.402;6.276;2023-01-29T12:30:02;34.2;;;17.9;;
67344;SDS011;54230;52.402;6.276;2023-01-29T12:35:01;30.4;;;16.1;;
67344;SDS011;54230;52.402;6.276;2023-01-29T12:40:00;34.3;;;18.1;;
67344;SDS011;54230;52.402;6.276;2023-01-29T12:45:00;32.6;;;18.0;;
67344;SDS011;54230;52.402;6.276;2023-01-29T12:50:01;35.2;;;18.1;;
67344;SDS011;54230;52.402;6.276;2023-01-29T12:55:01;36.7;;;20.7;;
67344;SDS011;54230;52.402;6.276;2023-01-29T13:00:02;35.9;;;17.8;;
67344;SDS011;54230;52.402;6.276;2023-01-29T13:05:01;32.8;;;17.8;;
67344;SDS011;54230;52.402;6.276;2023-01-29T13:10:02;41.8;;;19.0;;
67344;SDS011;54230;52.402;6.276;2023-01-29T13:15:02;36.2;;;19.8;;
67344;SDS011;54230;52.402;6.276;2023-01-29T13:20:00;37.4;;;18.5;;
67344;SDS011;54230;52.402;6.276;2023-01-29T13:25:00;36.9;;;19.5;;
67344;SDS011;54230;52.402;6.276;2023-01-29T13:30:00;36.0;;;18.4;;
67344;SDS011;54230;52.402;6.276;2023-01-29T13:35:01;36.9;;;19.1;;
67344;SDS011;54230;52.402;6.276;2023-01-29T13:40:00;41.9;;;20.3;;
67344;SDS011;54230;52.402;6.276;2023-01-29T13:45:00;40.0;;;22.0;;
67344;SDS011;54230;52.402;6.276;2023-01-29T13:50:00;44.8;;;22.2;;
67344;SDS011;54230;52.402;6.276;2023-01-29T13:55:01;42.7;;;21.3;;
67344;SDS011;54230;52.402;6.276;2023-01-29T14:00:00;43.2;;;20.2;;
67344;SDS011;54230;52.402;6.276;2023-01-29T14:10:01;40.4;;;19.6;;
67344;SDS011;54230;52.402;6.276;2023-01-29T14:15:02;39.9;;;19.8;;
67344;SDS011;54230;52.402;6.276;2023-01-29T14:20:01;41.7;;;22.0;;
67344;SDS011;54230;52.402;6.276;2023-01-29T14:25:00;40.7;;;20.3;;
67344;SDS011;54230;52.402;6.276;2023-01-29T14:30:02;39.8;;;18.8;;
67344;SDS011;54230;52.402;6.276;2023-01-29T14:35:00;44.3;;;22.3;;
67344;SDS011;54230;52.402;6.276;2023-01-29T14:40:07;41.0;;;21.1;;
67344;SDS011;54230;52.402;6.276;2023-01-29T14:45:06;44.8;;;22.0;;
67344;SDS011;54230;52.402;6.276;2023-01-29T14:50:00;42.9;;;19.8;;
67344;SDS011;54230;52.402;6.276;2023-01-29T14:55:02;43.8;;;21.2;;
67344;SDS011;54230;52.402;6.276;2023-01-29T15:00:00;43.3;;;20.0;;
67344;SDS011;54230;52.402;6.276;2023-01-29T15:05:00;38.1;;;18.8;;
67344;SDS011;54230;52.402;6.276;2023-01-29T15:10:02;44.9;;;22.2;;
67344;SDS011;54230;52.402;6.276;2023-01-29T15:15:02;41.9;;;20.3;;
67344;SDS011;54230;52.402;6.276;2023-01-29T15:20:00;44.9;;;20.9;;
67344;SDS011;54230;52.402;6.276;2023-01-29T15:25:01;47.4;;;24.6;;
67344;SDS011;54230;52.402;6.276;2023-01-29T15:30:01;44.0;;;23.3;;
67344;SDS011;54230;52.402;6.276;2023-01-29T15:35:01;42.4;;;20.6;;
67344;SDS011;54230;52.402;6.276;2023-01-29T15:40:00;38.8;;;19.0;;
67344;SDS011;54230;52.402;6.276;2023-01-29T15:45:01;44.6;;;19.3;;
67344;SDS011;54230;52.402;6.276;2023-01-29T15:50:00;40.5;;;19.3;;
67344;SDS011;54230;52.402;6.276;2023-01-29T15:55:00;40.2;;;19.3;;
67344;SDS011;54230;52.402;6.276;2023-01-29T16:00:00;38.6;;;18.1;;
67344;SDS011;54230;52.402;6.276;2023-01-29T16:05:00;37.2;;;17.5;;
67344;SDS011;54230;52.402;6.276;2023-01-29T16:10:00;unavailable;;;unavailable;;
67344;SDS011;54230;52.402;6.276;2023-01-29T16:15:01;29.9;;;15.0;;
67344;SDS011;54230;52.402;6.276;2023-01-29T16:20:01;35.7;;;17.7;;
67344;SDS011;54230;52.402;6.276;2023-01-29T16:25:00;34.7;;;18.0;;
67344;SDS011;54230;52.402;6.276;2023-01-29T16:30:00;36.8;;;18.8;;
67344;SDS011;54230;52.402;6.276;2023-01-29T16:35:00;36.9;;;18.3;;
67344;SDS011;54230;52.402;6.276;2023-01-29T16:40:08;32.2;;;16.0;;
67344;SDS011;54230;52.402;6.276;2023-01-29T16:45:00;40.2;;;19.2;;
67344;SDS011;54230;52.402;6.276;2023-01-29T16:50:01;41.2;;;17.8;;
67344;SDS011;54230;52.402;6.276;2023-01-29T16:55:03;36.0;;;18.4;;
67344;SDS011;54230;52.402;6.276;2023-01-29T17:00:01;41.7;;;20.3;;
67344;SDS011;54230;52.402;6.276;2023-01-29T17:05:01;42.0;;;21.5;;
67344;SDS011;54230;52.402;6.276;2023-01-29T17:10:00;42.6;;;19.6;;
67344;SDS011;54230;52.402;6.276;2023-01-29T17:15:00;29.1;;;14.9;;
67344;SDS011;54230;52.402;6.276;2023-01-29T17:20:05;36.4;;;17.1;;
67344;SDS011;54230;52.402;6.276;2023-01-29T17:25:00;44.9;;;19.9;;
67344;SDS011;54230;52.402;6.276;2023-01-29T17:30:00;43.5;;;22.1;;
67344;SDS011;54230;52.402;6.276;2023-01-29T17:35:00;40.3;;;21.0;;
67344;SDS011;54230;52.402;6.276;2023-01-29T17:40:00;39.2;;;19.1;;
67344;SDS011;54230;52.402;6.276;2023-01-29T17:45:00;38.4;;;17.4;;
67344;SDS011;54230;52.402;6.276;2023-01-29T17:50:00;40.7;;;19.3;;
67344;SDS011;54230;52.402;6.276;2023-01-29T17:55:00;39.9;;;19.6;;
67344;SDS011;54230;52.402;6.276;2023-01-29T18:00:00;43.8;;;20.1;;
67344;SDS011;54230;52.402;6.276;2023-01-29T18:05:00;40.2;;;19.1;;
67344;SDS011;54230;52.402;6.276;2023-01-29T18:10:00;46.1;;;21.4;;
67344;SDS011;54230;52.402;6.276;2023-01-29T18:15:00;44.5;;;20.2;;
67344;SDS011;54230;52.402;6.276;2023-01-29T18:20:00;40.6;;;19.4;;
67344;SDS011;54230;52.402;6.276;2023-01-29T18:25:00;41.8;;;18.4;;
67344;SDS011;54230;52.402;6.276;2023-01-29T18:30:00;39.1;;;18.4;;
67344;SDS011;54230;52.402;6.276;2023-01-29T18:35:00;46.0;;;20.5;;
67344;SDS011;54230;52.402;6.276;2023-01-29T18:40:00;45.6;;;19.8;;
67344;SDS011;54230;52.402;6.276;2023-01-29T18:45:00;43.9;;;18.8;;
67344;SDS011;54230;52.402;6.276;2023-01-29T18:50:00;43.2;;;19.2;;
67344;SDS011;54230;52.402;6.276;2023-01-29T18:55:00;47.7;;;19.8;;
67344;SDS011;54230;52.402;6.276;2023-01-29T19:00:00;40.6;;;17.1;;
67344;SDS011;54230;52.402;6.276;2023-01-29T19:05:00;35.9;;;15.4;;
67344;SDS011;54230;52.402;6.276;2023-01-29T19:10:00;38.5;;;15.8;;
67344;SDS011;54230;52.402;6.276;2023-01-29T19:15:00;40.7;;;17.4;;
67344;SDS011;54230;52.402;6.276;2023-01-29T19:20:00;41.5;;;19.3;;
67344;SDS011;54230;52.402;6.276;2023-01-29T19:25:00;41.5;;;17.4;;
67344;SDS011;54230;52.402;6.276;2023-01-29T19:30:00;41.1;;;20.1;;
67344;SDS011;54230;52.402;6.276;2023-01-29T19:35:00;41.2;;;18.5;;
67344;SDS011;54230;52.402;6.276;2023-01-29T19:40:00;40.3;;;19.2;;
67344;SDS011;54230;52.402;6.276;2023-01-29T19:45:00;41.8;;;18.4;;
67344;SDS011;54230;52.402;6.276;2023-01-29T19:50:00;43.8;;;19.4;;
67344;SDS011;54230;52.402;6.276;2023-01-29T19:55:00;43.7;;;18.8;;
67344;SDS011;54230;52.402;6.276;2023-01-29T20:00:00;43.6;;;19.1;;
67344;SDS011;54230;52.402;6.276;2023-01-29T20:05:00;39.5;;;17.6;;
67344;SDS011;54230;52.402;6.276;2023-01-29T20:10:00;44.3;;;21.7;;
67344;SDS011;54230;52.402;6.276;2023-01-29T20:15:00;45.9;;;22.4;;
67344;SDS011;54230;52.402;6.276;2023-01-29T20:20:00;46.6;;;20.7;;
67344;SDS011;54230;52.402;6.276;2023-01-29T20:25:00;43.4;;;19.9;;
67344;SDS011;54230;52.402;6.276;2023-01-29T20:30:00;41.4;;;22.9;;
67344;SDS011;54230;52.402;6.276;2023-01-29T20:35:00;49.6;;;21.9;;
67344;SDS011;54230;52.402;6.276;2023-01-29T20:40:00;42.7;;;18.4;;
67344;SDS011;54230;52.402;6.276;2023-01-29T20:45:00;38.0;;;17.8;;
67344;SDS011;54230;52.402;6.276;2023-01-29T20:50:00;42.3;;;22.0;;
67344;SDS011;54230;52.402;6.276;2023-01-29T20:55:00;43.0;;;19.2;;
67344;SDS011;54230;52.402;6.276;2023-01-29T21:00:00;45.9;;;19.9;;
67344;SDS011;54230;52.402;6.276;2023-01-29T21:05:00;39.1;;;17.3;;
67344;SDS011;54230;52.402;6.276;2023-01-29T21:10:00;40.1;;;19.5;;
67344;SDS011;54230;52.402;6.276;2023-01-29T21:15:00;45.3;;;22.4;;
67344;SDS011;54230;52.402;6.276;2023-01-29T21:20:00;46.7;;;20.6;;
67344;SDS011;54230;52.402;6.276;2023-01-29T21:25:00;44.2;;;21.9;;
67344;SDS011;54230;52.402;6.276;2023-01-29T21:30:00;43.8;;;20.2;;
67344;SDS011;54230;52.402;6.276;2023-01-29T21:35:00;43.1;;;20.5;;
67344;SDS011;54230;52.402;6.276;2023-01-29T21:40:00;40.1;;;19.0;;
67344;SDS011;54230;52.402;6.276;2023-01-29T21:45:00;39.4;;;17.8;;
67344;SDS011;54230;52.402;6.276;2023-01-29T21:50:00;41.6;;;19.2;;
67344;SDS011;54230;52.402;6.276;2023-01-29T21:55:00;47.3;;;24.0;;
67344;SDS011;54230;52.402;6.276;2023-01-29T22:00:00;40.4;;;17.6;;
67344;SDS011;54230;52.402;6.276;2023-01-29T22:05:00;47.9;;;22.6;;
67344;SDS011;54230;52.402;6.276;2023-01-29T22:10:00;40.6;;;18.8;;
67344;SDS011;54230;52.402;6.276;2023-01-29T22:15:00;44.6;;;21.5;;
67344;SDS011;54230;52.402;6.276;2023-01-29T22:20:00;36.8;;;15.7;;
67344;SDS011;54230;52.402;6.276;2023-01-29T22:25:00;42.7;;;17.2;;
67344;SDS011;54230;52.402;6.276;2023-01-29T22:30:00;48.7;;;20.8;;
67344;SDS011;54230;52.402;6.276;2023-01-29T22:35:00;42.6;;;19.1;;
67344;SDS011;54230;52.402;6.276;2023-01-29T22:40:00;47.9;;;21.6;;
67344;SDS011;54230;52.402;6.276;2023-01-29T22:45:00;47.3;;;19.9;;
67344;SDS011;54230;52.402;6.276;2023-01-29T22:50:00;49.4;;;20.6;;
67344;SDS011;54230;52.402;6.276;2023-01-29T22:55:00;41.0;;;16.9;;
67344;SDS011;54230;52.402;6.276;2023-01-29T23:00:00;42.0;;;17.7;;
67344;SDS011;54230;52.402;6.276;2023-01-29T23:05:00;42.6;;;19.6;;
67344;SDS011;54230;52.402;6.276;2023-01-29T23:10:00;43.7;;;20.9;;
67344;SDS011;54230;52.402;6.276;2023-01-29T23:15:00;39.1;;;17.0;;
67344;SDS011;54230;52.402;6.276;2023-01-29T23:20:00;48.8;;;23.4;;
67344;SDS011;54230;52.402;6.276;2023-01-29T23:25:00;49.2;;;24.4;;
67344;SDS011;54230;52.402;6.276;2023-01-29T23:30:00;53.4;;;22.9;;
67344;SDS011;54230;52.402;6.276;2023-01-29T23:35:00;43.3;;;18.7;;
67344;SDS011;54230;52.402;6.276;2023-01-29T23:40:00;50.6;;;23.6;;
67344;SDS011;54230;52.402;6.276;2023-01-29T23:45:00;45.8;;;22.3;;
67344;SDS011;54230;52.402;6.276;2023-01-29T23:50:00;53.0;;;24.0;;
67344;SDS011;54230;52.402;6.276;2023-01-29T23:55:00;51.7;;;23.5;;
